地図

経路データ

SID SEASON NUMBER BASIN SUBBASIN NAME ISO_TIME NATURE LAT LON WMO_WIND WMO_PRES WMO_AGENCY TRACK_TYPE DIST2LAND LANDFALL IFLAG USA_AGENCY USA_ATCF_ID USA_LAT USA_LON USA_RECORD USA_STATUS USA_WIND USA_PRES USA_SSHS USA_R34_NE USA_R34_SE USA_R34_SW USA_R34_NW USA_R50_NE USA_R50_SE USA_R50_SW USA_R50_NW USA_R64_NE USA_R64_SE USA_R64_SW USA_R64_NW USA_POCI USA_ROCI USA_RMW USA_EYE TOKYO_LAT TOKYO_LON TOKYO_GRADE TOKYO_WIND TOKYO_PRES TOKYO_R50_DIR TOKYO_R50_LONG TOKYO_R50_SHORT TOKYO_R30_DIR TOKYO_R30_LONG TOKYO_R30_SHORT TOKYO_LAND CMA_LAT CMA_LON CMA_CAT CMA_WIND CMA_PRES HKO_LAT HKO_LON HKO_CAT HKO_WIND HKO_PRES NEWDELHI_LAT NEWDELHI_LON NEWDELHI_GRADE NEWDELHI_WIND NEWDELHI_PRES NEWDELHI_CI NEWDELHI_DP NEWDELHI_POCI REUNION_LAT REUNION_LON REUNION_TYPE REUNION_WIND REUNION_PRES REUNION_TNUM REUNION_CI REUNION_RMW REUNION_R34_NE REUNION_R34_SE REUNION_R34_SW REUNION_R34_NW REUNION_R50_NE REUNION_R50_SE REUNION_R50_SW REUNION_R50_NW REUNION_R64_NE REUNION_R64_SE REUNION_R64_SW REUNION_R64_NW BOM_LAT BOM_LON BOM_TYPE BOM_WIND BOM_PRES BOM_TNUM BOM_CI BOM_RMW BOM_R34_NE BOM_R34_SE BOM_R34_SW BOM_R34_NW BOM_R50_NE BOM_R50_SE BOM_R50_SW BOM_R50_NW BOM_R64_NE BOM_R64_SE BOM_R64_SW BOM_R64_NW BOM_ROCI BOM_POCI BOM_EYE BOM_POS_METHOD BOM_PRES_METHOD NADI_LAT NADI_LON NADI_CAT NADI_WIND NADI_PRES WELLINGTON_LAT WELLINGTON_LON WELLINGTON_WIND WELLINGTON_PRES DS824_LAT DS824_LON DS824_STAGE DS824_WIND DS824_PRES TD9636_LAT TD9636_LON TD9636_STAGE TD9636_WIND TD9636_PRES TD9635_LAT TD9635_LON TD9635_WIND TD9635_PRES TD9635_ROCI NEUMANN_LAT NEUMANN_LON NEUMANN_CLASS NEUMANN_WIND NEUMANN_PRES MLC_LAT MLC_LON MLC_CLASS MLC_WIND MLC_PRES USA_GUST BOM_GUST BOM_GUST_PER REUNION_GUST REUNION_GUST_PER USA_SEAHGT USA_SEARAD_NE USA_SEARAD_SE USA_SEARAD_SW USA_SEARAD_NW STORM_SPEED STORM_DIR
1927134N14096 1927 23 NI BB NOT_NAMED 1927-05-14 00:00:00 TS 13.5000 95.5000 main 246 246 _________O____ -1 13.5000 95.5000 TC 30 0 0
1927134N14096 1927 23 NI BB NOT_NAMED 1927-05-14 03:00:00 TS 13.5000 95.5000 main 246 246 _________PO___ -1 13.5000 95.5000 TC 30 13.5000 95.5000 1 0 0
1927134N14096 1927 23 NI BB NOT_NAMED 1927-05-14 06:00:00 TS 13.5025 95.4900 main 246 246 _________OP___ -1 13.5000 95.5000 TC 30 13.5063 95.4751 1 0 0
1927134N14096 1927 23 NI BB NOT_NAMED 1927-05-14 09:00:00 TS 13.5043 95.4829 main 246 246 _________PP___ -1 13.5000 95.5000 TC 30 13.5101 95.4601 1 0 0
1927134N14096 1927 23 NI BB NOT_NAMED 1927-05-14 12:00:00 TS 13.5044 95.4825 main 246 246 _________OP___ -1 13.5000 95.5000 TC 30 13.5089 95.4651 1 0 0
1927134N14096 1927 23 NI BB NOT_NAMED 1927-05-14 15:00:00 TS 13.5000 95.5000 main 246 246 _________PO___ -1 13.5000 95.5000 TC 30 13.5000 95.5000 1 1 103
1927134N14096 1927 23 NI BB NOT_NAMED 1927-05-14 18:00:00 TS 13.4918 95.5324 main 246 246 _________OP___ -1 13.5000 95.5000 TC 30 13.4835 95.5649 1 1 104
1927134N14096 1927 23 NI BB NOT_NAMED 1927-05-14 21:00:00 TS 13.4810 95.5824 main 246 246 _________PP___ -1 13.4924 95.5450 TC 30 13.4696 95.6198 1 0 0
1927134N14096 1927 23 NI BB NOT_NAMED 1927-05-15 00:00:00 TS 13.4854 95.5574 main 246 246 _________OP___ -1 13.5000 95.5000 TC 30 13.4709 95.6148 1 2 280
1927134N14096 1927 23 NI BB NOT_NAMED 1927-05-15 03:00:00 TS 13.5137 95.3875 main 246 235 _________PO___ -1 13.5274 95.2749 TC 30 13.5000 95.5000 1 5 281
1927134N14096 1927 23 NI BB NOT_NAMED 1927-05-15 06:00:00 TS 13.5778 95.0494 main 235 226 _________OP___ -1 13.6000 94.9000 TC 30 13.5555 95.1988 1 8 283
1927134N14096 1927 23 NI BB NOT_NAMED 1927-05-15 09:00:00 TS 13.6880 94.5951 main 227 222 _________PP___ -1 13.7352 94.4001 TC 30 13.6408 94.7900 1 9 285
1927134N14096 1927 23 NI BB NOT_NAMED 1927-05-15 12:00:00 TS 13.8278 94.1181 main 226 211 _________OP___ -1 13.9000 93.9000 TC 30 13.7555 94.3362 1 9 288
1927134N14096 1927 23 NI BB NOT_NAMED 1927-05-15 15:00:00 TS 13.9674 93.7349 main 215 213 _________PO___ -1 14.0348 93.5699 TC 30 13.9000 93.9000 1 7 294
1927134N14096 1927 23 NI BB NOT_NAMED 1927-05-15 18:00:00 TS 14.1213 93.4315 main 218 208 _________OP___ -1 14.2000 93.3000 TC 30 14.0426 93.5629 1 7 301
1927134N14096 1927 23 NI BB NOT_NAMED 1927-05-15 21:00:00 TS 14.3186 93.1273 main 218 209 _________PP___ -1 14.4200 92.9999 TC 30 14.2172 93.2546 1 7 308
1927134N14096 1927 23 NI BB NOT_NAMED 1927-05-16 00:00:00 TS 14.5666 92.8345 main 217 216 _________OP___ -1 14.7000 92.7000 TC 30 14.4333 92.9691 1 8 314
1927134N14096 1927 23 NI BB NOT_NAMED 1927-05-16 03:00:00 TS 14.8638 92.5425 main 219 213 _________PO___ -1 15.0275 92.3850 TC 30 14.7000 92.7000 1 9 319
1927134N14096 1927 23 NI BB NOT_NAMED 1927-05-16 06:00:00 TS 15.2124 92.2498 main 232 228 _________OP___ -1 15.4000 92.1000 TC 30 15.0247 92.3995 1 9 324
1927134N14096 1927 23 NI BB NOT_NAMED 1927-05-16 09:00:00 TS 15.5988 91.9941 main 239 237 _________PP___ -1 15.8000 91.8700 TC 30 15.3976 92.1182 1 9 330
1927134N14096 1927 23 NI BB NOT_NAMED 1927-05-16 12:00:00 TS 15.9983 91.7888 main 256 256 _________OP___ -1 16.2000 91.7000 TC 30 15.7967 91.8777 1 9 336
1927134N14096 1927 23 NI BB NOT_NAMED 1927-05-16 15:00:00 TS 16.3750 91.6313 main 281 281 _________PO___ -1 16.5500 91.5625 TC 30 16.2000 91.7000 1 8 343
1927134N14096 1927 23 NI BB NOT_NAMED 1927-05-16 18:00:00 TS 16.7230 91.5572 main 288 288 _________OP___ -1 16.9000 91.5000 TC 30 16.5902 91.6001 1 7 353
1927134N14096 1927 23 NI BB NOT_NAMED 1927-05-16 21:00:00 TS 17.0954 91.5485 main 305 285 _________PP___ -1 17.2875 91.5249 TC 30 16.9674 91.5643 1 7 0
1927134N14096 1927 23 NI BB NOT_NAMED 1927-05-17 00:00:00 TS 17.4572 91.5809 main 278 265 _________OP___ -1 17.7000 91.6000 TC 30 17.3358 91.5714 1 6 6
1927134N14096 1927 23 NI BB NOT_NAMED 1927-05-17 03:00:00 NR 17.7000 91.6000 main 265 __________O___ -1 TC 17.7000 91.6000 1 5 6

IBTrACS Databaseについて

本データベースは、米国NOAAが公開する1842年以降の世界の熱帯低気圧のベストトラックデータアーカイブInternational Best Track Archive for Climate Stewardship (IBTrACS)を、ウェブで閲覧しやすい形式に変換したものです。

最終更新日:2021-10-08